createdAt,value
2022-12-24T00:01:21.072Z,53.37
2022-12-24T00:04:24.876Z,51.90
2022-12-24T00:07:28.705Z,53.23
2022-12-24T00:10:33.987Z,56.17
2022-12-24T00:13:37.825Z,53.13
2022-12-24T00:16:41.706Z,54.23
2022-12-24T00:19:45.452Z,50.67
2022-12-24T00:22:49.171Z,49.67
2022-12-24T00:25:54.318Z,46.27
2022-12-24T00:28:58.067Z,44.70
2022-12-24T00:32:03.317Z,45.20
2022-12-24T00:35:08.051Z,43.43
2022-12-24T00:38:11.849Z,44.40
2022-12-24T00:41:29.467Z,43.10
2022-12-24T00:44:33.303Z,41.83
2022-12-24T00:47:37.070Z,42.20
2022-12-24T00:50:40.785Z,42.00
2022-12-24T00:53:44.844Z,41.50
2022-12-24T00:56:49.933Z,39.50
2022-12-24T00:59:53.590Z,39.03
2022-12-24T01:02:57.526Z,38.93
2022-12-24T01:06:01.195Z,38.20
2022-12-24T01:09:05.019Z,39.20
2022-12-24T01:12:10.044Z,39.33
2022-12-24T01:15:16.076Z,37.63
2022-12-24T01:18:19.695Z,37.27
2022-12-24T01:21:23.472Z,35.77
2022-12-24T01:24:28.649Z,35.33
2022-12-24T01:27:34.030Z,34.10
2022-12-24T01:30:37.643Z,35.67
2022-12-24T01:33:41.553Z,35.37
2022-12-24T01:36:45.171Z,34.23
2022-12-24T01:39:48.716Z,33.67
2022-12-24T01:43:12.528Z,34.27
2022-12-24T01:46:20.507Z,33.40
2022-12-24T01:49:24.618Z,34.53
2022-12-24T01:52:31.293Z,35.20
2022-12-24T01:55:34.862Z,33.37
2022-12-24T01:58:42.608Z,31.70
2022-12-24T02:01:47.518Z,30.33
2022-12-24T02:04:57.924Z,30.90
2022-12-24T02:08:03.864Z,26.03
2022-12-24T02:11:15.729Z,24.00
2022-12-24T02:14:20.936Z,24.97
2022-12-24T02:17:31.612Z,24.00
2022-12-24T02:21:12.236Z,24.13
2022-12-24T02:24:43.928Z,24.60
2022-12-24T02:27:57.652Z,23.43
2022-12-24T02:31:06.984Z,23.80
2022-12-24T02:34:18.398Z,23.93
2022-12-24T02:37:27.864Z,23.30
2022-12-24T02:40:36.341Z,24.77
2022-12-24T02:43:43.793Z,27.80
2022-12-24T02:46:50.038Z,26.20
2022-12-24T02:49:55.027Z,24.93
2022-12-24T02:52:58.563Z,27.70
2022-12-24T02:56:30.626Z,26.43
2022-12-24T02:59:47.224Z,25.47
2022-12-24T03:03:10.446Z,40.27
2022-12-24T03:06:21.240Z,46.17
2022-12-24T03:09:28.450Z,39.57
2022-12-24T03:12:37.237Z,29.43
2022-12-24T03:15:41.502Z,28.60
2022-12-24T03:18:50.688Z,27.83
2022-12-24T03:21:58.113Z,30.10
2022-12-24T03:25:01.996Z,42.03
2022-12-24T03:28:07.895Z,46.73
2022-12-24T03:31:12.370Z,30.67
2022-12-24T03:34:21.569Z,31.90
2022-12-24T03:37:26.937Z,34.93
2022-12-24T03:40:30.874Z,33.67
2022-12-24T03:43:34.498Z,31.50
2022-12-24T03:46:38.100Z,31.23
2022-12-24T03:49:43.094Z,31.73
2022-12-24T03:52:46.809Z,32.60
2022-12-24T03:55:51.283Z,35.17
2022-12-24T03:58:55.644Z,41.07
2022-12-24T04:01:59.425Z,47.40
2022-12-24T04:05:05.026Z,37.10
2022-12-24T04:08:09.171Z,31.30
2022-12-24T04:11:14.917Z,30.77
2022-12-24T04:14:18.883Z,33.07
2022-12-24T04:17:22.430Z,33.20
2022-12-24T04:20:27.344Z,35.30
2022-12-24T04:23:32.323Z,30.50
2022-12-24T04:26:35.998Z,30.33
2022-12-24T04:29:41.149Z,29.03
2022-12-24T04:32:44.741Z,31.27
2022-12-24T04:35:51.095Z,30.83
2022-12-24T04:38:54.639Z,30.97
2022-12-24T04:42:00.504Z,31.33
2022-12-24T04:45:04.242Z,33.30
2022-12-24T04:48:07.861Z,30.63
2022-12-24T04:51:13.410Z,32.50
2022-12-24T04:54:16.956Z,30.00
2022-12-24T04:57:20.557Z,35.13
2022-12-24T05:00:24.401Z,32.00
2022-12-24T05:03:29.320Z,31.07
2022-12-24T05:06:35.016Z,29.53
2022-12-24T05:09:38.774Z,30.07
2022-12-24T05:12:42.384Z,29.47
2022-12-24T05:15:47.093Z,30.23
2022-12-24T05:18:51.264Z,30.10
2022-12-24T05:22:11.394Z,30.00
2022-12-24T05:25:32.539Z,29.60
2022-12-24T05:28:36.076Z,30.00
2022-12-24T05:31:40.733Z,29.73
2022-12-24T05:34:44.399Z,30.13
2022-12-24T05:37:49.356Z,31.70
2022-12-24T05:40:53.035Z,30.77
2022-12-24T05:43:56.909Z,31.10
2022-12-24T05:47:00.734Z,32.13
2022-12-24T05:50:04.430Z,42.50
2022-12-24T05:53:09.809Z,38.50
2022-12-24T05:56:16.418Z,35.00
2022-12-24T05:59:20.097Z,36.17
2022-12-24T06:02:24.376Z,35.80
2022-12-24T06:05:28.154Z,38.10
2022-12-24T06:08:35.181Z,35.83
2022-12-24T06:11:39.154Z,37.33
2022-12-24T06:14:43.031Z,40.30
2022-12-24T06:17:46.802Z,35.23
2022-12-24T06:20:52.592Z,38.67
2022-12-24T06:23:58.116Z,36.30
2022-12-24T06:27:01.916Z,38.97
2022-12-24T06:30:07.193Z,39.10
2022-12-24T06:33:10.940Z,43.13
2022-12-24T06:36:18.533Z,45.77
2022-12-24T06:39:23.940Z,49.40
2022-12-24T06:42:27.705Z,46.20
2022-12-24T06:45:32.395Z,46.70
2022-12-24T06:48:36.341Z,42.73
2022-12-24T06:51:40.082Z,36.53
2022-12-24T06:54:45.192Z,45.03
2022-12-24T06:57:48.950Z,44.73
2022-12-24T07:00:52.614Z,37.97
2022-12-24T07:03:56.494Z,36.87
2022-12-24T07:07:00.254Z,43.90
2022-12-24T07:10:06.319Z,33.90
2022-12-24T07:13:10.118Z,33.90
2022-12-24T07:16:13.982Z,34.77
2022-12-24T07:19:18.058Z,34.83
2022-12-24T07:22:21.893Z,36.97
2022-12-24T07:25:28.185Z,33.80
2022-12-24T07:28:32.912Z,29.57
2022-12-24T07:31:36.720Z,27.60
2022-12-24T07:34:41.842Z,28.80
2022-12-24T07:37:45.642Z,29.43
2022-12-24T07:40:50.812Z,30.63
2022-12-24T07:43:54.659Z,30.63
2022-12-24T07:46:58.466Z,30.57
2022-12-24T07:50:02.382Z,29.97
2022-12-24T07:53:06.305Z,28.40
2022-12-24T07:56:13.118Z,34.30
2022-12-24T07:59:17.131Z,32.27
2022-12-24T08:02:20.973Z,32.20
2022-12-24T08:05:24.853Z,35.40
2022-12-24T08:08:29.103Z,30.43
2022-12-24T08:11:34.340Z,29.73
2022-12-24T08:14:38.163Z,29.20
2022-12-24T08:17:42.004Z,20.23
2022-12-24T08:20:45.810Z,21.03
2022-12-24T08:23:49.658Z,15.67
2022-12-24T08:26:54.858Z,15.60
2022-12-24T08:29:58.502Z,15.60
2022-12-24T08:33:02.548Z,16.50
2022-12-24T08:36:06.931Z,17.13
2022-12-24T08:39:11.682Z,16.43
2022-12-24T08:42:16.945Z,19.57
2022-12-24T08:45:21.238Z,21.27
2022-12-24T08:48:25.814Z,24.63
2022-12-24T08:51:29.413Z,23.90
2022-12-24T08:54:33.134Z,24.13
2022-12-24T08:57:39.178Z,25.13
2022-12-24T09:00:42.929Z,25.07
2022-12-24T09:03:47.687Z,26.07
2022-12-24T09:06:51.539Z,23.40
2022-12-24T09:09:55.456Z,23.07
2022-12-24T09:13:00.739Z,20.63
2022-12-24T09:16:05.204Z,18.30
2022-12-24T09:19:10.699Z,19.43
2022-12-24T09:22:15.259Z,18.37
2022-12-24T09:25:19.183Z,16.97
2022-12-24T09:28:25.201Z,18.20
2022-12-24T09:31:29.542Z,19.17
2022-12-24T09:34:33.342Z,18.20
2022-12-24T09:37:37.602Z,18.43
2022-12-24T09:40:41.952Z,19.17
2022-12-24T09:43:51.408Z,19.60
2022-12-24T09:46:56.263Z,19.33
2022-12-24T09:50:04.881Z,22.80
2022-12-24T09:53:17.778Z,22.40
2022-12-24T09:56:25.459Z,25.97
2022-12-24T09:59:40.882Z,30.33
2022-12-24T10:02:45.056Z,20.57
2022-12-24T10:06:00.101Z,18.43
2022-12-24T10:09:13.184Z,17.53
2022-12-24T10:12:24.371Z,17.57
2022-12-24T10:15:32.933Z,19.90
2022-12-24T10:18:49.478Z,25.53
2022-12-24T10:22:06.154Z,20.13
2022-12-24T10:25:19.242Z,20.57
2022-12-24T10:28:29.838Z,20.90
2022-12-24T10:31:38.236Z,21.23
2022-12-24T10:34:45.282Z,21.80
2022-12-24T10:37:51.243Z,20.87
2022-12-24T10:40:57.679Z,19.90
2022-12-24T10:44:02.146Z,19.90
2022-12-24T10:47:09.761Z,19.50
2022-12-24T10:50:20.407Z,21.67
2022-12-24T10:53:29.704Z,21.87
2022-12-24T10:56:33.550Z,20.03
2022-12-24T10:59:50.899Z,20.27
2022-12-24T11:03:22.563Z,23.37
2022-12-24T11:06:26.357Z,19.73
2022-12-24T11:09:32.583Z,20.77
2022-12-24T11:12:39.717Z,19.37
2022-12-24T11:15:43.570Z,20.20
2022-12-24T11:18:52.275Z,19.73
2022-12-24T11:22:02.840Z,20.37
2022-12-24T11:25:20.253Z,20.60
2022-12-24T11:28:26.964Z,24.23
2022-12-24T11:31:33.090Z,22.63
2022-12-24T11:34:38.348Z,27.03
2022-12-24T11:37:42.416Z,25.00
2022-12-24T11:40:48.018Z,26.07
2022-12-24T11:43:59.495Z,28.90
2022-12-24T11:47:03.170Z,28.53
2022-12-24T11:50:30.306Z,30.13
2022-12-24T11:53:40.259Z,33.20
2022-12-24T11:56:47.546Z,32.47
2022-12-24T11:59:52.534Z,33.10
2022-12-24T12:03:01.332Z,37.93
2022-12-24T12:06:18.527Z,27.70
2022-12-24T12:09:26.236Z,28.00
2022-12-24T12:12:34.695Z,27.53
2022-12-24T12:15:44.718Z,28.13
2022-12-24T12:18:54.418Z,25.77
2022-12-24T12:22:02.498Z,30.53
2022-12-24T12:25:13.642Z,23.50
2022-12-24T12:28:22.804Z,31.67
2022-12-24T12:31:31.145Z,33.20
2022-12-24T12:34:40.729Z,34.57
2022-12-24T12:37:50.006Z,33.77
2022-12-24T12:41:13.948Z,35.73
2022-12-24T12:44:31.925Z,37.40
2022-12-24T12:47:49.532Z,41.60
2022-12-24T12:51:00.124Z,37.43
2022-12-24T12:54:23.967Z,40.57
2022-12-24T12:57:34.635Z,35.53
2022-12-24T13:00:42.316Z,29.63
2022-12-24T13:04:21.828Z,27.90
2022-12-24T13:07:55.275Z,28.13
2022-12-24T13:11:17.455Z,26.23
2022-12-24T13:14:39.570Z,30.27
2022-12-24T13:18:06.076Z,29.43
2022-12-24T13:21:17.908Z,30.23
2022-12-24T13:24:26.206Z,29.67
2022-12-24T13:27:33.571Z,28.87
2022-12-24T13:30:39.840Z,33.47
2022-12-24T13:33:50.797Z,30.50
2022-12-24T13:37:06.214Z,43.23
2022-12-24T13:40:23.733Z,34.70
2022-12-24T13:44:03.676Z,33.97
2022-12-24T13:47:28.132Z,35.97
2022-12-24T13:50:39.283Z,32.10
2022-12-24T13:53:45.097Z,33.87
2022-12-24T13:56:49.147Z,30.97
2022-12-24T14:00:01.297Z,33.67
2022-12-24T14:03:17.205Z,28.23
2022-12-24T14:06:25.660Z,31.03
2022-12-24T14:09:30.954Z,28.93
2022-12-24T14:12:48.732Z,32.93
2022-12-24T14:16:10.379Z,27.10
2022-12-24T14:19:16.701Z,27.27
2022-12-24T14:22:30.950Z,25.40
2022-12-24T14:25:35.928Z,28.93
2022-12-24T14:28:46.420Z,25.37
2022-12-24T14:31:54.992Z,32.10
2022-12-24T14:35:08.449Z,28.70
2022-12-24T14:38:19.007Z,29.00
2022-12-24T14:41:36.045Z,31.23
2022-12-24T14:44:48.770Z,29.87
2022-12-24T14:48:05.521Z,35.27
2022-12-24T14:51:19.685Z,32.33
2022-12-24T14:54:36.956Z,32.53
2022-12-24T14:57:40.830Z,30.17
2022-12-24T15:00:45.073Z,33.17
2022-12-24T15:04:02.105Z,32.80
2022-12-24T15:07:07.962Z,34.67
2022-12-24T15:10:27.569Z,35.97
2022-12-24T15:13:37.286Z,34.23
2022-12-24T15:16:42.065Z,32.63
2022-12-24T15:19:52.761Z,32.47
2022-12-24T15:22:59.142Z,32.50
2022-12-24T15:26:22.658Z,35.47
2022-12-24T15:29:29.180Z,44.47
2022-12-24T15:32:35.821Z,37.50
2022-12-24T15:35:52.871Z,33.43
2022-12-24T15:38:59.223Z,47.37
2022-12-24T15:42:15.324Z,38.07
2022-12-24T15:45:27.173Z,53.03
2022-12-24T15:48:33.367Z,51.27
2022-12-24T15:51:40.449Z,42.43
2022-12-24T15:54:49.620Z,48.87
2022-12-24T15:57:56.376Z,54.80
2022-12-24T16:01:06.513Z,52.80
2022-12-24T16:04:15.313Z,45.37
2022-12-24T16:07:48.403Z,44.83
2022-12-24T16:10:55.538Z,43.03
2022-12-24T16:14:07.039Z,44.43
2022-12-24T16:17:20.664Z,41.57
2022-12-24T16:20:24.685Z,41.80
2022-12-24T16:23:40.257Z,39.63
2022-12-24T16:26:44.015Z,38.23
2022-12-24T16:29:47.711Z,37.00
2022-12-24T16:32:52.407Z,54.97
2022-12-24T16:35:56.672Z,54.53
2022-12-24T16:39:19.164Z,54.90
2022-12-24T16:42:40.393Z,55.83
2022-12-24T16:45:45.724Z,54.60
2022-12-24T16:48:50.568Z,39.90
2022-12-24T16:51:54.529Z,35.17
2022-12-24T16:54:59.761Z,31.43
2022-12-24T16:58:03.354Z,27.70
2022-12-24T17:01:11.120Z,24.33
2022-12-24T17:04:15.598Z,24.23
2022-12-24T17:07:20.901Z,19.60
2022-12-24T17:10:26.339Z,16.40
2022-12-24T17:13:30.002Z,16.33
2022-12-24T17:16:33.826Z,12.30
2022-12-24T17:19:37.976Z,12.00
2022-12-24T17:22:41.832Z,15.87
2022-12-24T17:25:48.031Z,14.23
2022-12-24T17:28:55.613Z,16.17
2022-12-24T17:31:59.362Z,12.37
2022-12-24T17:35:03.231Z,16.60
2022-12-24T17:38:07.062Z,17.43
2022-12-24T17:41:19.537Z,11.17
2022-12-24T17:44:23.672Z,14.63
2022-12-24T17:47:27.472Z,12.37
2022-12-24T17:50:31.308Z,13.50
2022-12-24T17:53:35.595Z,14.23
2022-12-24T17:56:40.791Z,14.67
2022-12-24T17:59:44.453Z,12.43
2022-12-24T18:02:48.453Z,10.67
2022-12-24T18:05:53.226Z,13.37
2022-12-24T18:08:58.701Z,11.27
2022-12-24T18:12:03.979Z,10.40
2022-12-24T18:15:08.931Z,10.43
2022-12-24T18:18:12.638Z,10.03
2022-12-24T18:21:16.679Z,10.57
2022-12-24T18:24:20.923Z,10.80
2022-12-24T18:27:26.112Z,12.20
2022-12-24T18:30:29.871Z,8.73
2022-12-24T18:33:35.598Z,20.17
2022-12-24T18:36:39.590Z,12.37
2022-12-24T18:39:47.880Z,9.17
2022-12-24T18:42:53.110Z,8.20
2022-12-24T18:45:56.906Z,8.20
2022-12-24T18:49:01.501Z,9.17
2022-12-24T18:52:05.421Z,6.00
2022-12-24T18:55:10.234Z,10.27
2022-12-24T18:58:15.402Z,7.33
2022-12-24T19:01:25.566Z,8.33
2022-12-24T19:04:30.170Z,7.40
2022-12-24T19:07:33.978Z,8.17
2022-12-24T19:10:38.789Z,7.10
2022-12-24T19:13:47.230Z,5.37
2022-12-24T19:16:51.632Z,5.97
2022-12-24T19:19:55.481Z,7.03
2022-12-24T19:22:59.263Z,6.60
2022-12-24T19:26:03.279Z,7.13
2022-12-24T19:29:08.421Z,5.70
2022-12-24T19:32:12.308Z,8.63
2022-12-24T19:35:16.086Z,8.30
2022-12-24T19:38:19.778Z,7.33
2022-12-24T19:41:26.011Z,7.07
2022-12-24T19:44:31.382Z,6.90
2022-12-24T19:47:35.216Z,7.30
2022-12-24T19:50:38.973Z,8.43
2022-12-24T19:53:42.900Z,6.40
2022-12-24T19:56:46.697Z,8.60
2022-12-24T19:59:51.967Z,9.53
2022-12-24T20:02:55.924Z,14.27
2022-12-24T20:05:59.880Z,12.77
2022-12-24T20:09:06.356Z,9.40
2022-12-24T20:12:10.109Z,8.93
2022-12-24T20:15:15.377Z,7.87
2022-12-24T20:18:19.315Z,8.23
2022-12-24T20:21:23.564Z,9.53
2022-12-24T20:24:28.220Z,9.40
2022-12-24T20:27:32.108Z,11.10
2022-12-24T20:30:40.546Z,7.70
2022-12-24T20:33:45.811Z,7.27
2022-12-24T20:36:49.580Z,7.70
2022-12-24T20:39:53.508Z,7.33
2022-12-24T20:42:57.356Z,6.93
2022-12-24T20:46:02.527Z,6.77
2022-12-24T20:49:06.804Z,7.60
2022-12-24T20:52:10.599Z,8.27
2022-12-24T20:55:15.734Z,7.50
2022-12-24T20:58:19.845Z,7.53
2022-12-24T21:01:28.813Z,8.27
2022-12-24T21:04:32.846Z,16.63
2022-12-24T21:07:39.195Z,9.80
2022-12-24T21:10:44.067Z,22.90
2022-12-24T21:13:46.790Z,9.57
2022-12-24T21:16:52.759Z,10.07
2022-12-24T21:19:57.422Z,9.03
2022-12-24T21:23:01.906Z,12.03
2022-12-24T21:26:06.898Z,13.87
2022-12-24T21:29:14.914Z,12.47
2022-12-24T21:32:20.138Z,8.23
2022-12-24T21:35:23.776Z,10.90
2022-12-24T21:38:27.745Z,6.90
2022-12-24T21:41:31.335Z,7.40
2022-12-24T21:44:37.048Z,6.57
2022-12-24T21:47:44.830Z,6.53
2022-12-24T21:50:57.437Z,6.40
2022-12-24T21:54:18.534Z,6.23
2022-12-24T21:57:39.396Z,5.30
2022-12-24T22:00:43.168Z,7.50
2022-12-24T22:03:50.825Z,4.93
2022-12-24T22:07:11.815Z,6.73
2022-12-24T22:10:33.234Z,5.83
2022-12-24T22:13:37.047Z,8.73
2022-12-24T22:16:40.765Z,13.13
2022-12-24T22:19:46.135Z,45.13
2022-12-24T22:22:50.009Z,7.37
2022-12-24T22:25:54.949Z,8.40
2022-12-24T22:28:58.837Z,12.07
2022-12-24T22:32:02.613Z,6.30
2022-12-24T22:35:08.471Z,6.20
2022-12-24T22:38:12.895Z,6.07
2022-12-24T22:41:16.941Z,6.27
2022-12-24T22:44:20.729Z,8.80
2022-12-24T22:47:24.441Z,6.00
2022-12-24T22:50:29.415Z,16.33
2022-12-24T22:53:33.044Z,23.67
2022-12-24T22:56:40.930Z,5.50
2022-12-24T22:59:47.423Z,10.67
2022-12-24T23:02:51.071Z,27.07
2022-12-24T23:06:00.809Z,15.83
2022-12-24T23:09:06.140Z,25.87
2022-12-24T23:12:10.267Z,13.33
2022-12-24T23:15:12.995Z,45.27
2022-12-24T23:18:16.728Z,15.70
2022-12-24T23:21:22.083Z,13.93
2022-12-24T23:24:25.699Z,11.67
2022-12-24T23:27:29.394Z,7.57
2022-12-24T23:30:33.115Z,5.73
2022-12-24T23:33:37.137Z,13.03
2022-12-24T23:36:42.444Z,9.50
2022-12-24T23:39:46.560Z,14.83
2022-12-24T23:42:50.173Z,34.07
2022-12-24T23:45:55.127Z,9.63
2022-12-24T23:48:58.718Z,7.67
2022-12-24T23:52:04.377Z,10.63
2022-12-24T23:55:08.738Z,7.10
2022-12-24T23:58:15.102Z,12.37
